EVA120 RCKH-RJFF
Flight info
| Callsign | EVA120 |
|---|---|
| Flight time | 2h 1m |
| Altitude | 35000 |
| Route | TNN1H TNN W4 ANLOT M750 MOMPA Y25 GOKYO/N0464F360 Y25 ISKUP |
| Aircraft | A321/M-SDE3FGHIRWY/LB1 |
Departure
| Time | 2026-04-19 03:37 |
|---|---|
| Airport | Kaohsiung International Airport (RCKH) |
Arrival
| Time | 2026-04-19 05:38 |
|---|---|
| Airport | Fukuoka Airport (RJFF) |
| Time | Latitude | Longitude | Altitude | Speed | Heading |
|---|---|---|---|---|---|
| 2026-04-19 03:16 | 22.57320 | 120.34133 | 29 ft | 0 kts | 94° |
| 2026-04-19 03:24 | 22.57321 | 120.34129 | 29 ft | 4 kts | 84° |
| 2026-04-19 03:24 | 22.57321 | 120.34105 | 29 ft | 4 kts | 83° |
| 2026-04-19 03:24 | 22.57314 | 120.34078 | 29 ft | 4 kts | 57° |
| 2026-04-19 03:25 | 22.57295 | 120.34058 | 29 ft | 4 kts | 20° |
| 2026-04-19 03:25 | 22.57280 | 120.34054 | 29 ft | 1 kts | 1° |
| 2026-04-19 03:25 | 22.57278 | 120.34054 | 29 ft | 0 kts | 1° |
| 2026-04-19 03:28 | 22.57287 | 120.34055 | 29 ft | 5 kts | 1° |
| 2026-04-19 03:28 | 22.57350 | 120.34057 | 29 ft | 14 kts | 2° |
| 2026-04-19 03:29 | 22.57431 | 120.34114 | 29 ft | 14 kts | 25° |
| 2026-04-19 03:29 | 22.57524 | 120.34129 | 29 ft | 13 kts | 17° |
| 2026-04-19 03:29 | 22.57566 | 120.34199 | 30 ft | 11 kts | 84° |
| 2026-04-19 03:29 | 22.57565 | 120.34278 | 30 ft | 10 kts | 92° |
| 2026-04-19 03:30 | 22.57560 | 120.34393 | 31 ft | 20 kts | 92° |
| 2026-04-19 03:30 | 22.57553 | 120.34574 | 31 ft | 26 kts | 92° |
| 2026-04-19 03:30 | 22.57549 | 120.34755 | 32 ft | 22 kts | 91° |
| 2026-04-19 03:30 | 22.57546 | 120.34912 | 32 ft | 20 kts | 92° |
| 2026-04-19 03:31 | 22.57541 | 120.35058 | 32 ft | 19 kts | 91° |
| 2026-04-19 03:31 | 22.57537 | 120.35196 | 33 ft | 18 kts | 91° |
| 2026-04-19 03:31 | 22.57534 | 120.35323 | 33 ft | 16 kts | 92° |
| 2026-04-19 03:31 | 22.57530 | 120.35435 | 34 ft | 14 kts | 92° |
| 2026-04-19 03:32 | 22.57527 | 120.35535 | 34 ft | 13 kts | 92° |
| 2026-04-19 03:32 | 22.57524 | 120.35625 | 35 ft | 11 kts | 92° |
| 2026-04-19 03:32 | 22.57521 | 120.35704 | 35 ft | 10 kts | 92° |
| 2026-04-19 03:32 | 22.57519 | 120.35772 | 35 ft | 8 kts | 92° |
| 2026-04-19 03:33 | 22.57517 | 120.35831 | 36 ft | 8 kts | 92° |
| 2026-04-19 03:33 | 22.57514 | 120.35907 | 36 ft | 12 kts | 92° |
| 2026-04-19 03:33 | 22.57510 | 120.36008 | 37 ft | 14 kts | 91° |
| 2026-04-19 03:33 | 22.57507 | 120.36107 | 37 ft | 12 kts | 92° |
| 2026-04-19 03:34 | 22.57504 | 120.36195 | 37 ft | 11 kts | 92° |
| 2026-04-19 03:34 | 22.57502 | 120.36274 | 38 ft | 10 kts | 92° |
| 2026-04-19 03:34 | 22.57501 | 120.36343 | 38 ft | 8 kts | 86° |
| 2026-04-19 03:34 | 22.57522 | 120.36395 | 38 ft | 7 kts | 47° |
| 2026-04-19 03:35 | 22.57559 | 120.36412 | 39 ft | 5 kts | 8° |
| 2026-04-19 03:35 | 22.57590 | 120.36416 | 39 ft | 4 kts | 7° |
| 2026-04-19 03:35 | 22.57633 | 120.36408 | 39 ft | 11 kts | 335° |
| 2026-04-19 03:35 | 22.57668 | 120.36306 | 39 ft | 16 kts | 274° |
| 2026-04-19 03:36 | 22.57676 | 120.36116 | 37 ft | 51 kts | 272° |
| 2026-04-19 03:36 | 22.57698 | 120.35483 | 33 ft | 112 kts | 271° |
| 2026-04-19 03:36 | 22.57731 | 120.34467 | 32 ft | 156 kts | 270° |
| 2026-04-19 03:36 | 22.57761 | 120.33213 | 374 ft | 166 kts | 273° |
| 2026-04-19 03:37 | 22.57784 | 120.32289 | 867 ft | 162 kts | 274° |
| 2026-04-19 03:37 | 22.57792 | 120.31777 | 1131 ft | 160 kts | 271° |
| 2026-04-19 03:37 | 22.57779 | 120.30583 | 1787 ft | 157 kts | 269° |
| 2026-04-19 03:37 | 22.57721 | 120.29416 | 2306 ft | 155 kts | 266° |
| 2026-04-19 03:38 | 22.57618 | 120.28251 | 2799 ft | 155 kts | 264° |
| 2026-04-19 03:38 | 22.57542 | 120.27480 | 3098 ft | 157 kts | 268° |
| 2026-04-19 03:38 | 22.57587 | 120.26237 | 3362 ft | 173 kts | 276° |
| 2026-04-19 03:38 | 22.57722 | 120.24861 | 3507 ft | 195 kts | 277° |
| 2026-04-19 03:39 | 22.58055 | 120.23374 | 3655 ft | 215 kts | 292° |
| 2026-04-19 03:39 | 22.58836 | 120.21895 | 3771 ft | 237 kts | 309° |
| 2026-04-19 03:39 | 22.60159 | 120.20696 | 4007 ft | 261 kts | 334° |
| 2026-04-19 03:39 | 22.61935 | 120.20182 | 4598 ft | 270 kts | 358° |
| 2026-04-19 03:40 | 22.63828 | 120.20184 | 5335 ft | 274 kts | 0° |
| 2026-04-19 03:40 | 22.65746 | 120.20207 | 6100 ft | 277 kts | 0° |
| 2026-04-19 03:40 | 22.67679 | 120.20231 | 6836 ft | 280 kts | 359° |
| 2026-04-19 03:40 | 22.69634 | 120.20253 | 7579 ft | 282 kts | 359° |
| 2026-04-19 03:41 | 22.71614 | 120.20271 | 8302 ft | 285 kts | 358° |
| 2026-04-19 03:41 | 22.73625 | 120.20290 | 9039 ft | 288 kts | 359° |
| 2026-04-19 03:41 | 22.75648 | 120.20307 | 9781 ft | 291 kts | 358° |
| 2026-04-19 03:41 | 22.77682 | 120.20321 | 10324 ft | 301 kts | 358° |
| 2026-04-19 03:42 | 22.79859 | 120.20335 | 10471 ft | 323 kts | 358° |
| 2026-04-19 03:42 | 22.82189 | 120.20349 | 10598 ft | 345 kts | 358° |
| 2026-04-19 03:42 | 22.84647 | 120.20364 | 10809 ft | 363 kts | 359° |
| 2026-04-19 03:42 | 22.86764 | 120.20380 | 11197 ft | 369 kts | 359° |
| 2026-04-19 03:43 | 22.89351 | 120.20403 | 11773 ft | 373 kts | 359° |
| 2026-04-19 03:43 | 22.91935 | 120.20428 | 12377 ft | 376 kts | 359° |
| 2026-04-19 03:43 | 22.94632 | 120.20453 | 12994 ft | 380 kts | 359° |
| 2026-04-19 03:43 | 22.97276 | 120.20478 | 13589 ft | 383 kts | 359° |
| 2026-04-19 03:44 | 22.99960 | 120.20500 | 14144 ft | 387 kts | 358° |
| 2026-04-19 03:44 | 23.02662 | 120.20523 | 14714 ft | 390 kts | 358° |
| 2026-04-19 03:44 | 23.05388 | 120.20550 | 15270 ft | 392 kts | 358° |
| 2026-04-19 03:44 | 23.08115 | 120.20578 | 15785 ft | 395 kts | 358° |
| 2026-04-19 03:45 | 23.10883 | 120.20604 | 16293 ft | 397 kts | 358° |
| 2026-04-19 03:45 | 23.13665 | 120.20856 | 16773 ft | 403 kts | 7° |
| 2026-04-19 03:45 | 23.16391 | 120.21646 | 17241 ft | 410 kts | 15° |
| 2026-04-19 03:45 | 23.19142 | 120.22650 | 17734 ft | 413 kts | 15° |
| 2026-04-19 03:46 | 23.21844 | 120.23631 | 18191 ft | 415 kts | 14° |
| 2026-04-19 03:46 | 23.24624 | 120.24638 | 18610 ft | 418 kts | 14° |
| 2026-04-19 03:46 | 23.27391 | 120.25639 | 18990 ft | 421 kts | 14° |
| 2026-04-19 03:46 | 23.30223 | 120.26665 | 19369 ft | 424 kts | 14° |
| 2026-04-19 03:47 | 23.33032 | 120.27687 | 19728 ft | 427 kts | 14° |
| 2026-04-19 03:47 | 23.35901 | 120.28730 | 20128 ft | 430 kts | 14° |
| 2026-04-19 03:47 | 23.38746 | 120.29762 | 20499 ft | 433 kts | 14° |
| 2026-04-19 03:47 | 23.41610 | 120.30800 | 20902 ft | 436 kts | 14° |
| 2026-04-19 03:48 | 23.44541 | 120.31864 | 21277 ft | 440 kts | 13° |
| 2026-04-19 03:48 | 23.47461 | 120.32927 | 21645 ft | 443 kts | 13° |
| 2026-04-19 03:48 | 23.50441 | 120.34013 | 22019 ft | 446 kts | 13° |
| 2026-04-19 03:48 | 23.53392 | 120.35089 | 22378 ft | 449 kts | 13° |
| 2026-04-19 03:49 | 23.56377 | 120.36177 | 22733 ft | 452 kts | 13° |
| 2026-04-19 03:49 | 23.59409 | 120.37281 | 23088 ft | 455 kts | 13° |
| 2026-04-19 03:49 | 23.62417 | 120.38378 | 23438 ft | 458 kts | 13° |
| 2026-04-19 03:49 | 23.65450 | 120.39482 | 23756 ft | 460 kts | 13° |
| 2026-04-19 03:50 | 23.68543 | 120.40606 | 24006 ft | 465 kts | 13° |
| 2026-04-19 03:50 | 23.71670 | 120.41743 | 24285 ft | 467 kts | 13° |
| 2026-04-19 03:50 | 23.74802 | 120.42883 | 24592 ft | 470 kts | 13° |
| 2026-04-19 03:50 | 23.77903 | 120.44012 | 24889 ft | 472 kts | 13° |
| 2026-04-19 03:51 | 23.81027 | 120.45150 | 25197 ft | 474 kts | 12° |
| 2026-04-19 03:51 | 23.84220 | 120.46313 | 25507 ft | 476 kts | 12° |
| 2026-04-19 03:51 | 23.87354 | 120.47500 | 25812 ft | 481 kts | 16° |
| 2026-04-19 03:51 | 23.90342 | 120.49116 | 26116 ft | 490 kts | 26° |
| 2026-04-19 03:52 | 23.93183 | 120.51333 | 26399 ft | 500 kts | 36° |
| 2026-04-19 03:52 | 23.95729 | 120.53959 | 26677 ft | 505 kts | 39° |
| 2026-04-19 03:52 | 23.97437 | 120.55771 | 26852 ft | 507 kts | 39° |
| 2026-04-19 03:52 | 23.99974 | 120.58455 | 27144 ft | 509 kts | 39° |
| 2026-04-19 03:53 | 24.02529 | 120.61147 | 27428 ft | 512 kts | 39° |
| 2026-04-19 03:53 | 24.05136 | 120.63891 | 27700 ft | 514 kts | 39° |
| 2026-04-19 03:53 | 24.07751 | 120.66646 | 27959 ft | 516 kts | 39° |
| 2026-04-19 03:53 | 24.10335 | 120.69374 | 28327 ft | 516 kts | 38° |
| 2026-04-19 03:54 | 24.12919 | 120.72106 | 28701 ft | 515 kts | 38° |
| 2026-04-19 03:54 | 24.15494 | 120.74833 | 29069 ft | 515 kts | 38° |
| 2026-04-19 03:54 | 24.18065 | 120.77563 | 29428 ft | 515 kts | 38° |
| 2026-04-19 03:54 | 24.20643 | 120.80302 | 29787 ft | 515 kts | 38° |
| 2026-04-19 03:55 | 24.23212 | 120.83032 | 30106 ft | 515 kts | 38° |
| 2026-04-19 03:55 | 24.25787 | 120.85768 | 30372 ft | 516 kts | 38° |
| 2026-04-19 03:55 | 24.28370 | 120.88510 | 30636 ft | 517 kts | 38° |
| 2026-04-19 03:55 | 24.30959 | 120.91257 | 30895 ft | 518 kts | 38° |
| 2026-04-19 03:56 | 24.33549 | 120.94004 | 31193 ft | 519 kts | 38° |
| 2026-04-19 03:56 | 24.36141 | 120.96759 | 31473 ft | 520 kts | 39° |
| 2026-04-19 03:56 | 24.38742 | 120.99526 | 31683 ft | 523 kts | 39° |
| 2026-04-19 03:56 | 24.41342 | 121.02357 | 31927 ft | 527 kts | 43° |
| 2026-04-19 03:57 | 24.43684 | 121.05451 | 32130 ft | 531 kts | 47° |
| 2026-04-19 03:57 | 24.46016 | 121.08672 | 32414 ft | 532 kts | 47° |
| 2026-04-19 03:57 | 24.48326 | 121.11864 | 32703 ft | 532 kts | 47° |
| 2026-04-19 03:57 | 24.50620 | 121.15031 | 32892 ft | 532 kts | 47° |
| 2026-04-19 03:58 | 24.52958 | 121.18256 | 33086 ft | 534 kts | 47° |
| 2026-04-19 03:58 | 24.55284 | 121.21465 | 33385 ft | 534 kts | 47° |
| 2026-04-19 03:58 | 24.57588 | 121.24649 | 33618 ft | 535 kts | 49° |
| 2026-04-19 03:58 | 24.59912 | 121.27863 | 33842 ft | 537 kts | 49° |
| 2026-04-19 03:59 | 24.62238 | 121.31083 | 34062 ft | 539 kts | 49° |
| 2026-04-19 03:59 | 24.64590 | 121.34333 | 34256 ft | 540 kts | 49° |
| 2026-04-19 03:59 | 24.66911 | 121.37537 | 34464 ft | 540 kts | 49° |
| 2026-04-19 03:59 | 24.69249 | 121.40769 | 34699 ft | 540 kts | 49° |
| 2026-04-19 04:00 | 24.71580 | 121.43998 | 34955 ft | 540 kts | 49° |
| 2026-04-19 04:00 | 24.73943 | 121.47278 | 35184 ft | 539 kts | 49° |
| 2026-04-19 04:00 | 24.76237 | 121.50470 | 35421 ft | 538 kts | 49° |
| 2026-04-19 04:00 | 24.78595 | 121.53757 | 35642 ft | 539 kts | 50° |
| 2026-04-19 04:01 | 24.80921 | 121.56995 | 35851 ft | 539 kts | 50° |
| 2026-04-19 04:01 | 24.85575 | 121.63480 | 35991 ft | 540 kts | 50° |
| 2026-04-19 04:01 | 24.87903 | 121.66730 | 35974 ft | 539 kts | 50° |
| 2026-04-19 04:02 | 24.92612 | 121.73157 | 35992 ft | 538 kts | 47° |
| 2026-04-19 04:02 | 24.97610 | 121.79468 | 35986 ft | 548 kts | 46° |
| 2026-04-19 04:03 | 25.02728 | 121.85798 | 35992 ft | 557 kts | 46° |
| 2026-04-19 04:03 | 25.07817 | 121.92239 | 35998 ft | 558 kts | 47° |
| 2026-04-19 04:04 | 25.12865 | 121.98743 | 36007 ft | 557 kts | 47° |
| 2026-04-19 04:04 | 25.17869 | 122.05213 | 35988 ft | 557 kts | 47° |
| 2026-04-19 04:05 | 25.22886 | 122.11733 | 35980 ft | 557 kts | 47° |
| 2026-04-19 04:05 | 25.27943 | 122.18312 | 36000 ft | 558 kts | 47° |
| 2026-04-19 04:06 | 25.32978 | 122.24859 | 36003 ft | 559 kts | 47° |
| 2026-04-19 04:06 | 25.38018 | 122.31416 | 36023 ft | 560 kts | 47° |
| 2026-04-19 04:07 | 25.43067 | 122.38001 | 36006 ft | 561 kts | 48° |
| 2026-04-19 04:07 | 25.48106 | 122.44596 | 36009 ft | 562 kts | 48° |
| 2026-04-19 04:08 | 25.53154 | 122.51196 | 36016 ft | 562 kts | 47° |
| 2026-04-19 04:08 | 25.58238 | 122.57792 | 36037 ft | 563 kts | 47° |
| 2026-04-19 04:09 | 25.63324 | 122.64390 | 36000 ft | 563 kts | 47° |
| 2026-04-19 04:09 | 25.68444 | 122.71061 | 36017 ft | 564 kts | 48° |
| 2026-04-19 04:10 | 25.73519 | 122.77691 | 36019 ft | 565 kts | 48° |
| 2026-04-19 04:10 | 25.78611 | 122.84349 | 36049 ft | 565 kts | 48° |
| 2026-04-19 04:11 | 25.83694 | 122.90992 | 36016 ft | 565 kts | 48° |
| 2026-04-19 04:11 | 25.88815 | 122.97705 | 36008 ft | 566 kts | 48° |
| 2026-04-19 04:12 | 25.93928 | 123.04420 | 36046 ft | 567 kts | 48° |
| 2026-04-19 04:12 | 25.99062 | 123.11181 | 36043 ft | 567 kts | 48° |
| 2026-04-19 04:13 | 26.04136 | 123.17874 | 36008 ft | 567 kts | 48° |
| 2026-04-19 04:13 | 26.08396 | 123.23483 | 36012 ft | 568 kts | 48° |
| 2026-04-19 04:14 | 26.13573 | 123.30307 | 36037 ft | 568 kts | 48° |
| 2026-04-19 04:14 | 26.18665 | 123.37051 | 36033 ft | 569 kts | 49° |
| 2026-04-19 04:15 | 26.23752 | 123.43798 | 36031 ft | 569 kts | 48° |
| 2026-04-19 04:15 | 26.28836 | 123.50536 | 36028 ft | 569 kts | 48° |
| 2026-04-19 04:16 | 26.33959 | 123.57341 | 36029 ft | 568 kts | 49° |
| 2026-04-19 04:16 | 26.39085 | 123.64183 | 36018 ft | 567 kts | 49° |
| 2026-04-19 04:17 | 26.44151 | 123.70935 | 35976 ft | 568 kts | 49° |
| 2026-04-19 04:17 | 26.49233 | 123.77705 | 35993 ft | 570 kts | 49° |
| 2026-04-19 04:18 | 26.54312 | 123.84508 | 36002 ft | 571 kts | 49° |
| 2026-04-19 04:18 | 26.59404 | 123.91329 | 35999 ft | 571 kts | 49° |
| 2026-04-19 04:19 | 26.64489 | 123.98143 | 35982 ft | 572 kts | 49° |
| 2026-04-19 04:19 | 26.69601 | 124.05000 | 35993 ft | 573 kts | 49° |
| 2026-04-19 04:20 | 26.74740 | 124.11886 | 35998 ft | 573 kts | 49° |
| 2026-04-19 04:20 | 26.79856 | 124.18734 | 36003 ft | 574 kts | 49° |
| 2026-04-19 04:21 | 26.84984 | 124.25610 | 35989 ft | 574 kts | 49° |
| 2026-04-19 04:21 | 26.90091 | 124.32477 | 36015 ft | 575 kts | 49° |
| 2026-04-19 04:22 | 26.95207 | 124.39374 | 36010 ft | 575 kts | 49° |
| 2026-04-19 04:22 | 27.00324 | 124.46275 | 36010 ft | 575 kts | 49° |
| 2026-04-19 04:23 | 27.05454 | 124.53194 | 35996 ft | 575 kts | 49° |
| 2026-04-19 04:23 | 27.10554 | 124.60085 | 36029 ft | 576 kts | 49° |
| 2026-04-19 04:24 | 27.15683 | 124.67034 | 36017 ft | 576 kts | 49° |
| 2026-04-19 04:24 | 27.20829 | 124.74016 | 35990 ft | 577 kts | 50° |
| 2026-04-19 04:25 | 27.25943 | 124.80959 | 36022 ft | 577 kts | 49° |
| 2026-04-19 04:25 | 27.31071 | 124.87932 | 36022 ft | 577 kts | 50° |
| 2026-04-19 04:26 | 27.36163 | 124.94871 | 36020 ft | 577 kts | 50° |
| 2026-04-19 04:26 | 27.41225 | 125.01785 | 36001 ft | 578 kts | 50° |
| 2026-04-19 04:27 | 27.46426 | 125.08827 | 36005 ft | 578 kts | 49° |
| 2026-04-19 04:27 | 27.51596 | 125.15778 | 36012 ft | 578 kts | 49° |
| 2026-04-19 04:28 | 27.56784 | 125.22782 | 36015 ft | 579 kts | 49° |
| 2026-04-19 04:28 | 27.61939 | 125.29760 | 36008 ft | 579 kts | 49° |
| 2026-04-19 04:29 | 27.67085 | 125.36757 | 36010 ft | 579 kts | 50° |
| 2026-04-19 04:29 | 27.72240 | 125.43767 | 36008 ft | 580 kts | 49° |
| 2026-04-19 04:30 | 27.77398 | 125.50780 | 36017 ft | 580 kts | 50° |
| 2026-04-19 04:30 | 27.82550 | 125.57802 | 36011 ft | 580 kts | 50° |
| 2026-04-19 04:31 | 27.87701 | 125.64851 | 36006 ft | 581 kts | 50° |
| 2026-04-19 04:31 | 27.92849 | 125.71894 | 36009 ft | 581 kts | 50° |
| 2026-04-19 04:32 | 27.98027 | 125.78985 | 35970 ft | 580 kts | 50° |
| 2026-04-19 04:32 | 28.03162 | 125.86028 | 35975 ft | 580 kts | 50° |
| 2026-04-19 04:33 | 28.07427 | 125.91897 | 35984 ft | 581 kts | 50° |
| 2026-04-19 04:33 | 28.12560 | 125.98970 | 36015 ft | 581 kts | 50° |
| 2026-04-19 04:34 | 28.17707 | 126.06071 | 36006 ft | 582 kts | 50° |
| 2026-04-19 04:34 | 28.22880 | 126.13203 | 36002 ft | 582 kts | 50° |
| 2026-04-19 04:35 | 28.28020 | 126.20317 | 36048 ft | 582 kts | 50° |
| 2026-04-19 04:35 | 28.33114 | 126.27402 | 35953 ft | 577 kts | 50° |
| 2026-04-19 04:36 | 28.38210 | 126.34482 | 35979 ft | 580 kts | 50° |
| 2026-04-19 04:36 | 28.43358 | 126.41640 | 35985 ft | 580 kts | 50° |
| 2026-04-19 04:37 | 28.48481 | 126.48776 | 35989 ft | 581 kts | 50° |
| 2026-04-19 04:37 | 28.53599 | 126.55910 | 35972 ft | 581 kts | 50° |
| 2026-04-19 04:38 | 28.58752 | 126.63103 | 35978 ft | 581 kts | 50° |
| 2026-04-19 04:38 | 28.63863 | 126.70268 | 36013 ft | 581 kts | 50° |
| 2026-04-19 04:39 | 28.68966 | 126.77432 | 35972 ft | 581 kts | 50° |
| 2026-04-19 04:39 | 28.74058 | 126.84581 | 35978 ft | 582 kts | 50° |
| 2026-04-19 04:40 | 28.79185 | 126.91799 | 35995 ft | 582 kts | 50° |
| 2026-04-19 04:40 | 28.84272 | 126.98980 | 35988 ft | 582 kts | 50° |
| 2026-04-19 04:41 | 28.89387 | 127.06212 | 35967 ft | 582 kts | 50° |
| 2026-04-19 04:41 | 28.94509 | 127.13454 | 36008 ft | 583 kts | 50° |
| 2026-04-19 04:42 | 28.99603 | 127.20661 | 35995 ft | 583 kts | 50° |
| 2026-04-19 04:42 | 29.04723 | 127.27916 | 35965 ft | 583 kts | 50° |
| 2026-04-19 04:43 | 29.09795 | 127.35136 | 35989 ft | 583 kts | 50° |
| 2026-04-19 04:43 | 29.14903 | 127.42424 | 35979 ft | 583 kts | 50° |
| 2026-04-19 04:44 | 29.20015 | 127.49719 | 35948 ft | 583 kts | 50° |
| 2026-04-19 04:44 | 29.25091 | 127.56981 | 35960 ft | 584 kts | 50° |
| 2026-04-19 04:45 | 29.30159 | 127.64250 | 35981 ft | 584 kts | 51° |
| 2026-04-19 04:45 | 29.35264 | 127.71585 | 35965 ft | 584 kts | 50° |
| 2026-04-19 04:46 | 29.40367 | 127.78923 | 35953 ft | 584 kts | 51° |
| 2026-04-19 04:46 | 29.45446 | 127.86242 | 35976 ft | 585 kts | 51° |
| 2026-04-19 04:47 | 29.50531 | 127.93571 | 35965 ft | 585 kts | 51° |
| 2026-04-19 04:47 | 29.55625 | 128.00923 | 35946 ft | 585 kts | 51° |
| 2026-04-19 04:48 | 29.59857 | 128.07041 | 35969 ft | 585 kts | 51° |
| 2026-04-19 04:48 | 29.64928 | 128.14388 | 35963 ft | 585 kts | 51° |
| 2026-04-19 04:49 | 29.69993 | 128.21737 | 35944 ft | 585 kts | 51° |
| 2026-04-19 04:49 | 29.75037 | 128.29079 | 35959 ft | 585 kts | 51° |
| 2026-04-19 04:50 | 29.80093 | 128.36443 | 35961 ft | 585 kts | 51° |
| 2026-04-19 04:50 | 29.85156 | 128.43820 | 35955 ft | 585 kts | 51° |
| 2026-04-19 04:51 | 29.90204 | 128.51207 | 35906 ft | 583 kts | 51° |
| 2026-04-19 04:51 | 29.95360 | 128.58766 | 35909 ft | 582 kts | 51° |
| 2026-04-19 04:52 | 30.00387 | 128.66140 | 35887 ft | 583 kts | 51° |
| 2026-04-19 04:52 | 30.05436 | 128.73549 | 35902 ft | 583 kts | 51° |
| 2026-04-19 04:53 | 30.10479 | 128.80966 | 35912 ft | 583 kts | 51° |
| 2026-04-19 04:53 | 30.15476 | 128.88352 | 35924 ft | 584 kts | 51° |
| 2026-04-19 04:54 | 30.20504 | 128.95796 | 35930 ft | 584 kts | 51° |
| 2026-04-19 04:54 | 30.25543 | 129.03256 | 35928 ft | 584 kts | 51° |
| 2026-04-19 04:55 | 30.30564 | 129.10706 | 35924 ft | 584 kts | 51° |
| 2026-04-19 04:55 | 30.35597 | 129.18186 | 35925 ft | 584 kts | 51° |
| 2026-04-19 04:56 | 30.40587 | 129.25621 | 35928 ft | 584 kts | 51° |
| 2026-04-19 04:56 | 30.45578 | 129.33058 | 35950 ft | 585 kts | 51° |
| 2026-04-19 04:57 | 30.50594 | 129.40548 | 35927 ft | 585 kts | 51° |
| 2026-04-19 04:57 | 30.55594 | 129.48044 | 35928 ft | 585 kts | 51° |
| 2026-04-19 04:58 | 30.60588 | 129.55555 | 35949 ft | 585 kts | 51° |
| 2026-04-19 04:58 | 30.65596 | 129.63090 | 35901 ft | 584 kts | 51° |
| 2026-04-19 04:59 | 30.70565 | 129.70556 | 35911 ft | 585 kts | 51° |
| 2026-04-19 04:59 | 30.75547 | 129.78059 | 35936 ft | 585 kts | 51° |
| 2026-04-19 05:00 | 30.79906 | 129.84148 | 35917 ft | 583 kts | 41° |
| 2026-04-19 05:00 | 30.82988 | 129.87174 | 35911 ft | 577 kts | 30° |
| 2026-04-19 05:00 | 30.86430 | 129.89624 | 35916 ft | 569 kts | 20° |
| 2026-04-19 05:01 | 30.90043 | 129.91392 | 35948 ft | 558 kts | 10° |
| 2026-04-19 05:01 | 30.93762 | 129.92503 | 35945 ft | 546 kts | 0° |
| 2026-04-19 05:01 | 31.01239 | 129.93425 | 35940 ft | 538 kts | 355° |
| 2026-04-19 05:02 | 31.08686 | 129.94237 | 35944 ft | 539 kts | 355° |
| 2026-04-19 05:02 | 31.16276 | 129.95082 | 35961 ft | 540 kts | 355° |
| 2026-04-19 05:03 | 31.23762 | 129.95911 | 35952 ft | 540 kts | 355° |
| 2026-04-19 05:03 | 31.31235 | 129.96727 | 35984 ft | 539 kts | 355° |
| 2026-04-19 05:04 | 31.38746 | 129.97356 | 35921 ft | 535 kts | 353° |
| 2026-04-19 05:04 | 31.46220 | 129.97866 | 35933 ft | 535 kts | 353° |
| 2026-04-19 05:05 | 31.53624 | 129.98405 | 35961 ft | 536 kts | 354° |
| 2026-04-19 05:05 | 31.61185 | 129.99018 | 35955 ft | 537 kts | 354° |
| 2026-04-19 05:06 | 31.68639 | 129.99632 | 35953 ft | 537 kts | 354° |
| 2026-04-19 05:06 | 31.76148 | 130.00239 | 35961 ft | 537 kts | 354° |
| 2026-04-19 05:07 | 31.83612 | 130.00832 | 35958 ft | 537 kts | 354° |
| 2026-04-19 05:07 | 31.91134 | 130.01429 | 35965 ft | 537 kts | 354° |
| 2026-04-19 05:08 | 32.02346 | 130.02329 | 35951 ft | 535 kts | 354° |
| 2026-04-19 05:09 | 32.09787 | 130.02925 | 35953 ft | 536 kts | 354° |
| 2026-04-19 05:09 | 32.17365 | 130.03526 | 35960 ft | 536 kts | 354° |
| 2026-04-19 05:10 | 32.24865 | 130.04134 | 35959 ft | 536 kts | 354° |
| 2026-04-19 05:10 | 32.32367 | 130.04746 | 35965 ft | 536 kts | 354° |
| 2026-04-19 05:11 | 32.39852 | 130.05351 | 35957 ft | 534 kts | 354° |
| 2026-04-19 05:11 | 32.46011 | 130.05852 | 35950 ft | 534 kts | 354° |
| 2026-04-19 05:12 | 32.53423 | 130.06452 | 35986 ft | 534 kts | 354° |
| 2026-04-19 05:12 | 32.60826 | 130.06710 | 35882 ft | 516 kts | 345° |
| 2026-04-19 05:12 | 32.64354 | 130.06146 | 34752 ft | 498 kts | 337° |
| 2026-04-19 05:13 | 32.67757 | 130.05299 | 33066 ft | 499 kts | 338° |
| 2026-04-19 05:13 | 32.71089 | 130.04422 | 31337 ft | 501 kts | 338° |
| 2026-04-19 05:13 | 32.74607 | 130.03482 | 29439 ft | 501 kts | 340° |
| 2026-04-19 05:13 | 32.78007 | 130.02581 | 27335 ft | 501 kts | 342° |
| 2026-04-19 05:14 | 32.81468 | 130.01678 | 25238 ft | 503 kts | 344° |
| 2026-04-19 05:14 | 32.84884 | 130.00799 | 24136 ft | 500 kts | 345° |
| 2026-04-19 05:14 | 32.88280 | 129.99939 | 23735 ft | 487 kts | 345° |
| 2026-04-19 05:14 | 32.91589 | 129.99107 | 22841 ft | 485 kts | 345° |
| 2026-04-19 05:15 | 32.94859 | 129.98284 | 22107 ft | 478 kts | 345° |
| 2026-04-19 05:15 | 32.98108 | 129.97461 | 21390 ft | 472 kts | 346° |
| 2026-04-19 05:15 | 33.01301 | 129.96647 | 20680 ft | 467 kts | 346° |
| 2026-04-19 05:15 | 33.04452 | 129.95839 | 19984 ft | 462 kts | 345° |
| 2026-04-19 05:16 | 33.07666 | 129.95014 | 19298 ft | 457 kts | 345° |
| 2026-04-19 05:16 | 33.10760 | 129.94221 | 18641 ft | 452 kts | 345° |
| 2026-04-19 05:16 | 33.13813 | 129.93437 | 17982 ft | 446 kts | 345° |
| 2026-04-19 05:16 | 33.16867 | 129.92653 | 17362 ft | 438 kts | 345° |
| 2026-04-19 05:17 | 33.19779 | 129.91907 | 16865 ft | 429 kts | 345° |
| 2026-04-19 05:17 | 33.22708 | 129.91156 | 16314 ft | 421 kts | 346° |
| 2026-04-19 05:17 | 33.25590 | 129.90416 | 15774 ft | 414 kts | 346° |
| 2026-04-19 05:17 | 33.28383 | 129.89696 | 15263 ft | 408 kts | 346° |
| 2026-04-19 05:18 | 33.31138 | 129.88985 | 14749 ft | 402 kts | 346° |
| 2026-04-19 05:18 | 33.33855 | 129.88282 | 14246 ft | 397 kts | 346° |
| 2026-04-19 05:18 | 33.36587 | 129.87576 | 13698 ft | 394 kts | 346° |
| 2026-04-19 05:18 | 33.39247 | 129.86889 | 13133 ft | 389 kts | 346° |
| 2026-04-19 05:19 | 33.41887 | 129.86207 | 12568 ft | 386 kts | 346° |
| 2026-04-19 05:19 | 33.44497 | 129.85536 | 12010 ft | 382 kts | 348° |
| 2026-04-19 05:19 | 33.47120 | 129.85174 | 11422 ft | 379 kts | 359° |
| 2026-04-19 05:19 | 33.49722 | 129.85401 | 11098 ft | 368 kts | 11° |
| 2026-04-19 05:20 | 33.52145 | 129.86120 | 10974 ft | 351 kts | 18° |
| 2026-04-19 05:20 | 33.54477 | 129.86953 | 10851 ft | 337 kts | 18° |
| 2026-04-19 05:20 | 33.56679 | 129.87733 | 10731 ft | 324 kts | 18° |
| 2026-04-19 05:20 | 33.58800 | 129.88484 | 10612 ft | 312 kts | 18° |
| 2026-04-19 05:21 | 33.60854 | 129.89213 | 10401 ft | 304 kts | 18° |
| 2026-04-19 05:21 | 33.62859 | 129.89928 | 10295 ft | 299 kts | 19° |
| 2026-04-19 05:21 | 33.64871 | 129.90649 | 10202 ft | 298 kts | 19° |
| 2026-04-19 05:21 | 33.66856 | 129.91360 | 10084 ft | 297 kts | 20° |
| 2026-04-19 05:22 | 33.68838 | 129.92070 | 9805 ft | 298 kts | 20° |
| 2026-04-19 05:22 | 33.70850 | 129.92791 | 9371 ft | 297 kts | 20° |
| 2026-04-19 05:22 | 33.72822 | 129.93498 | 8987 ft | 294 kts | 20° |
| 2026-04-19 05:22 | 33.74774 | 129.94195 | 8612 ft | 292 kts | 20° |
| 2026-04-19 05:23 | 33.76715 | 129.94890 | 8225 ft | 289 kts | 19° |
| 2026-04-19 05:23 | 33.78681 | 129.95360 | 7999 ft | 288 kts | 6° |
| 2026-04-19 05:23 | 33.80721 | 129.95514 | 8021 ft | 290 kts | 6° |
| 2026-04-19 05:23 | 33.82727 | 129.95673 | 8016 ft | 285 kts | 6° |
| 2026-04-19 05:24 | 33.84653 | 129.95828 | 8029 ft | 275 kts | 6° |
| 2026-04-19 05:24 | 33.86614 | 129.95996 | 8027 ft | 284 kts | 8° |
| 2026-04-19 05:24 | 33.88485 | 129.96539 | 8015 ft | 264 kts | 27° |
| 2026-04-19 05:24 | 33.90140 | 129.97521 | 8029 ft | 267 kts | 30° |
| 2026-04-19 05:25 | 33.91268 | 129.98199 | 8026 ft | 268 kts | 30° |
| 2026-04-19 05:25 | 33.92937 | 129.99199 | 8027 ft | 268 kts | 30° |
| 2026-04-19 05:25 | 33.94668 | 130.00226 | 8028 ft | 269 kts | 29° |
| 2026-04-19 05:25 | 33.96359 | 130.01228 | 8026 ft | 269 kts | 29° |
| 2026-04-19 05:26 | 33.97991 | 130.02311 | 8024 ft | 265 kts | 41° |
| 2026-04-19 05:26 | 33.99278 | 130.03827 | 8045 ft | 252 kts | 53° |
| 2026-04-19 05:26 | 34.00405 | 130.05380 | 8034 ft | 236 kts | 53° |
| 2026-04-19 05:26 | 34.01478 | 130.06859 | 8031 ft | 232 kts | 53° |
| 2026-04-19 05:27 | 34.02304 | 130.08514 | 7831 ft | 225 kts | 76° |
| 2026-04-19 05:27 | 34.02419 | 130.10357 | 7762 ft | 220 kts | 101° |
| 2026-04-19 05:27 | 34.01854 | 130.12040 | 7714 ft | 219 kts | 126° |
| 2026-04-19 05:27 | 34.00716 | 130.13286 | 7624 ft | 219 kts | 144° |
| 2026-04-19 05:28 | 33.99454 | 130.14305 | 7251 ft | 219 kts | 144° |
| 2026-04-19 05:28 | 33.98187 | 130.15323 | 6893 ft | 219 kts | 145° |
| 2026-04-19 05:28 | 33.96921 | 130.16341 | 6560 ft | 219 kts | 145° |
| 2026-04-19 05:28 | 33.95643 | 130.17370 | 6270 ft | 217 kts | 145° |
| 2026-04-19 05:29 | 33.94367 | 130.18397 | 5873 ft | 216 kts | 145° |
| 2026-04-19 05:29 | 33.93117 | 130.19403 | 5505 ft | 214 kts | 145° |
| 2026-04-19 05:29 | 33.91914 | 130.20367 | 5259 ft | 202 kts | 144° |
| 2026-04-19 05:29 | 33.90754 | 130.21298 | 4758 ft | 200 kts | 144° |
| 2026-04-19 05:30 | 33.89582 | 130.22239 | 4145 ft | 204 kts | 146° |
| 2026-04-19 05:30 | 33.88406 | 130.23182 | 3626 ft | 201 kts | 146° |
| 2026-04-19 05:30 | 33.87238 | 130.24121 | 3191 ft | 198 kts | 145° |
| 2026-04-19 05:30 | 33.86092 | 130.25045 | 2781 ft | 198 kts | 145° |
| 2026-04-19 05:31 | 33.84950 | 130.25965 | 2395 ft | 198 kts | 144° |
| 2026-04-19 05:31 | 33.83758 | 130.26925 | 2141 ft | 208 kts | 144° |
| 2026-04-19 05:31 | 33.82545 | 130.27902 | 2012 ft | 210 kts | 144° |
| 2026-04-19 05:31 | 33.81321 | 130.28884 | 2015 ft | 203 kts | 144° |
| 2026-04-19 05:32 | 33.80176 | 130.29811 | 2004 ft | 196 kts | 142° |
| 2026-04-19 05:32 | 33.79115 | 130.30836 | 2004 ft | 195 kts | 142° |
| 2026-04-19 05:32 | 33.77989 | 130.31734 | 2013 ft | 194 kts | 146° |
| 2026-04-19 05:32 | 33.76816 | 130.32572 | 2000 ft | 194 kts | 148° |
| 2026-04-19 05:33 | 33.75643 | 130.33385 | 2015 ft | 194 kts | 148° |
| 2026-04-19 05:33 | 33.74460 | 130.34198 | 2001 ft | 189 kts | 148° |
| 2026-04-19 05:33 | 33.73385 | 130.34935 | 2020 ft | 171 kts | 148° |
| 2026-04-19 05:33 | 33.72363 | 130.35637 | 2002 ft | 165 kts | 148° |
| 2026-04-19 05:34 | 33.71367 | 130.36321 | 2023 ft | 164 kts | 147° |
| 2026-04-19 05:34 | 33.70367 | 130.37007 | 1996 ft | 162 kts | 147° |
| 2026-04-19 05:34 | 33.69396 | 130.37672 | 2003 ft | 149 kts | 147° |
| 2026-04-19 05:34 | 33.68518 | 130.38273 | 1925 ft | 142 kts | 148° |
| 2026-04-19 05:35 | 33.67952 | 130.38661 | 1837 ft | 140 kts | 148° |
| 2026-04-19 05:35 | 33.67107 | 130.39241 | 1696 ft | 139 kts | 147° |
| 2026-04-19 05:35 | 33.66272 | 130.39813 | 1509 ft | 136 kts | 147° |
| 2026-04-19 05:35 | 33.65433 | 130.40388 | 1316 ft | 137 kts | 146° |
| 2026-04-19 05:36 | 33.64600 | 130.40958 | 1137 ft | 138 kts | 147° |
| 2026-04-19 05:36 | 33.63761 | 130.41533 | 971 ft | 138 kts | 148° |
| 2026-04-19 05:36 | 33.62920 | 130.42108 | 788 ft | 135 kts | 149° |
| 2026-04-19 05:36 | 33.62103 | 130.42668 | 618 ft | 134 kts | 151° |
| 2026-04-19 05:37 | 33.61294 | 130.43218 | 464 ft | 132 kts | 151° |
| 2026-04-19 05:37 | 33.60482 | 130.43766 | 310 ft | 132 kts | 150° |
| 2026-04-19 05:37 | 33.59682 | 130.44313 | 124 ft | 130 kts | 150° |
| 2026-04-19 05:37 | 33.58912 | 130.44848 | 59 ft | 129 kts | 151° |
| 2026-04-19 05:38 | 33.58160 | 130.45356 | 34 ft | 112 kts | 150° |
| 2026-04-19 05:38 | 33.57721 | 130.45653 | 37 ft | 31 kts | 148° |
| 2026-04-19 05:38 | 33.57579 | 130.45759 | 40 ft | 15 kts | 148° |
| 2026-04-19 05:38 | 33.57512 | 130.45743 | 40 ft | 9 kts | 240° |
| 2026-04-19 05:39 | 33.57478 | 130.45695 | 39 ft | 6 kts | 225° |
| 2026-04-19 05:39 | 33.57468 | 130.45676 | 39 ft | 5 kts | 242° |
| 2026-04-19 05:39 | 33.57462 | 130.45653 | 39 ft | 5 kts | 260° |
| 2026-04-19 05:40 | 33.57470 | 130.45622 | 39 ft | 0 kts | 300° |